Time;durP1;ratioP1;P1;durP2;ratioP2;P2;SDS_P1;SDS_P2;PMS_P1;PMS_P2;Temp;Humidity;BMP_temperature;BMP_pressure;BME280_temperature;BME280_humidity;BME280_pressure;Samples;Min_cycle;Max_cycle;Signal;HPM_P1;HPM_P2
2021/07/30 00:00:04;;;;;;;11.25;7.20;;;16.00;99.90;;;;;;5103147;28;20382;-57
2021/07/30 00:02:30;;;;;;;12.93;6.70;;;15.90;99.90;;;;;;5091178;28;20390;-57
2021/07/30 00:04:56;;;;;;;12.35;7.20;;;15.90;99.90;;;;;;5090534;28;20397;-57
2021/07/30 00:07:21;;;;;;;9.93;6.27;;;15.90;99.90;;;;;;5091970;28;20853;-57
2021/07/30 00:09:47;;;;;;;10.30;6.63;;;15.90;99.90;;;;;;5090929;28;20410;-57
2021/07/30 00:12:13;;;;;;;10.93;6.50;;;15.90;99.90;;;;;;5091432;28;20374;-57
2021/07/30 00:14:38;;;;;;;11.05;6.53;;;15.80;99.90;;;;;;5091541;28;20402;-57
2021/07/30 00:17:04;;;;;;;11.17;6.50;;;15.90;99.90;;;;;;5090788;28;20382;-57
2021/07/30 00:19:30;;;;;;;11.20;6.50;;;16.00;99.90;;;;;;5091692;28;20378;-57
2021/07/30 00:21:55;;;;;;;13.50;7.20;;;16.00;99.90;;;;;;5091084;28;20703;-57
2021/07/30 00:24:21;;;;;;;11.17;6.30;;;16.00;99.90;;;;;;5091055;28;20406;-57
2021/07/30 00:26:48;;;;;;;11.53;6.37;;;15.90;99.90;;;;;;5091190;28;20414;-57
2021/07/30 00:29:14;;;;;;;11.15;7.50;;;15.90;99.90;;;;;;5091434;28;20507;-57
2021/07/30 00:31:39;;;;;;;12.27;7.00;;;15.80;99.90;;;;;;5091578;28;20853;-57
2021/07/30 00:34:05;;;;;;;9.95;6.43;;;15.70;99.90;;;;;;5090365;28;20385;-57
2021/07/30 00:36:31;;;;;;;11.03;6.47;;;15.70;99.90;;;;;;5090083;28;20390;-57
2021/07/30 00:38:57;;;;;;;10.60;7.47;;;15.70;99.90;;;;;;5090617;28;20404;-57
2021/07/30 00:41:23;;;;;;;14.10;7.10;;;15.70;99.90;;;;;;5091031;28;20451;-57
2021/07/30 00:43:49;;;;;;;11.10;6.53;;;15.70;99.90;;;;;;5090722;28;20764;-57
2021/07/30 00:46:14;;;;;;;10.75;6.70;;;15.70;99.90;;;;;;5091146;28;20903;-57
2021/07/30 00:48:40;;;;;;;10.52;6.82;;;15.60;99.90;;;;;;5090324;28;20465;-57
2021/07/30 00:51:06;;;;;;;13.27;6.90;;;15.60;99.90;;;;;;5090494;28;20378;-57
2021/07/30 00:53:32;;;;;;;11.50;6.90;;;15.60;99.90;;;;;;5091208;28;20473;-57
2021/07/30 00:55:58;;;;;;;10.70;6.65;;;15.60;99.90;;;;;;5090262;28;20481;-57
2021/07/30 00:58:28;;;;;;;11.70;6.70;;;15.60;99.90;;;;;;5091402;28;20459;-57
2021/07/30 01:00:53;;;;;;;10.77;6.95;;;15.50;99.90;;;;;;5088909;28;20837;-57
2021/07/30 01:03:19;;;;;;;11.15;6.60;;;15.50;99.90;;;;;;5090804;28;20378;-57
2021/07/30 01:05:45;;;;;;;12.13;7.03;;;15.40;99.90;;;;;;5090819;28;20519;-57
2021/07/30 01:08:11;;;;;;;11.60;7.10;;;15.40;99.90;;;;;;5090201;28;20576;-57
2021/07/30 01:10:37;;;;;;;13.50;6.97;;;15.30;99.90;;;;;;5090899;28;20473;-57
2021/07/30 01:13:03;;;;;;;11.23;7.20;;;15.30;99.90;;;;;;5089981;28;20386;-56
2021/07/30 01:15:28;;;;;;;11.93;7.20;;;15.30;99.90;;;;;;5091029;28;20876;-56
2021/07/30 01:17:54;;;;;;;11.00;7.10;;;15.30;99.90;;;;;;5090038;28;20957;-56
2021/07/30 01:20:25;;;;;;;13.47;6.70;;;15.30;99.90;;;;;;5090829;28;20461;-56
2021/07/30 01:22:58;;;;;;;12.65;6.70;;;15.30;99.90;;;;;;5090151;28;20401;-57
2021/07/30 01:25:26;;;;;;;11.63;6.78;;;15.10;99.90;;;;;;5090198;28;20772;-57
2021/07/30 01:27:52;;;;;;;12.82;7.00;;;15.10;99.90;;;;;;5089849;28;20404;-57
2021/07/30 01:30:20;;;;;;;15.18;7.30;;;15.20;99.90;;;;;;5090583;28;20466;-57
2021/07/30 01:32:46;;;;;;;10.90;6.70;;;15.20;99.90;;;;;;5089088;28;20374;-57
2021/07/30 01:35:12;;;;;;;11.70;6.13;;;15.10;99.90;;;;;;5089495;28;20370;-57
2021/07/30 01:37:37;;;;;;;12.27;7.07;;;15.10;99.90;;;;;;5090132;28;21127;-57
2021/07/30 01:40:05;;;;;;;10.83;6.83;;;15.00;99.90;;;;;;5089889;28;20386;-57
2021/07/30 01:42:30;;;;;;;11.45;6.53;;;15.00;99.90;;;;;;5090113;28;20481;-57
2021/07/30 01:44:56;;;;;;;10.30;6.70;;;15.00;99.90;;;;;;5089089;28;20508;-57
2021/07/30 01:47:22;;;;;;;12.45;6.80;;;15.00;99.90;;;;;;5088826;28;20394;-57
2021/07/30 01:49:48;;;;;;;13.65;7.03;;;15.00;99.90;;;;;;5090253;28;20427;-57
2021/07/30 01:52:14;;;;;;;10.88;6.50;;;15.10;99.90;;;;;;5089380;28;20430;-57
2021/07/30 01:54:40;;;;;;;11.70;6.75;;;15.10;99.90;;;;;;5090409;28;20377;-58
2021/07/30 01:57:06;;;;;;;10.50;6.80;;;15.10;99.90;;;;;;5089361;28;20869;-57
2021/07/30 01:59:32;;;;;;;13.02;7.10;;;15.00;99.90;;;;;;5089569;28;20389;-57
2021/07/30 02:01:58;;;;;;;10.48;6.90;;;14.90;99.90;;;;;;5089131;28;20378;-57
2021/07/30 02:04:23;;;;;;;10.80;6.30;;;14.90;99.90;;;;;;5089323;28;20400;-57
2021/07/30 02:06:49;;;;;;;10.38;6.95;;;14.90;99.90;;;;;;5089894;28;20869;-57
2021/07/30 02:09:15;;;;;;;15.40;7.10;;;14.80;99.90;;;;;;5089034;28;20892;-57
2021/07/30 02:11:42;;;;;;;10.50;6.77;;;14.80;99.90;;;;;;5089698;28;20408;-57
2021/07/30 02:14:17;;;;;;;13.75;6.70;;;14.80;99.90;;;;;;5088486;28;20442;-57
2021/07/30 02:16:47;;;;;;;16.27;7.00;;;14.80;99.90;;;;;;5089804;28;20378;-57
2021/07/30 02:19:14;;;;;;;11.63;6.70;;;14.70;99.90;;;;;;5089003;28;20427;-57
2021/07/30 02:21:40;;;;;;;11.40;6.60;;;14.70;99.90;;;;;;5089394;28;20428;-57
2021/07/30 02:24:07;;;;;;;12.00;7.10;;;14.70;99.90;;;;;;5089215;28;20441;-57
2021/07/30 02:26:32;;;;;;;11.32;5.90;;;14.80;99.90;;;;;;5089072;28;20376;-57
2021/07/30 02:28:58;;;;;;;11.10;6.60;;;14.80;99.90;;;;;;5089077;28;20370;-57
2021/07/30 02:31:24;;;;;;;11.20;6.50;;;14.80;99.90;;;;;;5089799;28;20378;-57
2021/07/30 02:33:50;;;;;;;10.80;6.20;;;14.70;99.90;;;;;;5089752;28;20726;-57
2021/07/30 02:36:16;;;;;;;11.20;6.28;;;14.70;99.90;;;;;;5089012;28;20392;-57
2021/07/30 02:38:42;;;;;;;13.10;7.07;;;14.70;99.90;;;;;;5089636;28;20939;-57
2021/07/30 02:41:08;;;;;;;9.70;6.70;;;14.70;99.90;;;;;;5088942;28;20729;-57
2021/07/30 02:43:33;;;;;;;11.83;6.90;;;14.60;99.90;;;;;;5088147;28;20421;-56
2021/07/30 02:45:59;;;;;;;9.77;6.10;;;14.60;99.90;;;;;;5088748;28;20386;-57
2021/07/30 02:48:24;;;;;;;14.97;6.87;;;14.50;99.90;;;;;;5088257;28;20390;-56
2021/07/30 02:50:50;;;;;;;12.60;6.80;;;14.40;99.90;;;;;;5089549;28;20387;-57
2021/07/30 02:53:16;;;;;;;12.32;7.13;;;14.40;99.90;;;;;;5088716;28;20374;-57
2021/07/30 02:55:42;;;;;;;11.90;6.93;;;14.40;99.90;;;;;;5101433;28;20392;-57
2021/07/30 02:58:07;;;;;;;10.68;6.85;;;14.40;99.90;;;;;;5109306;28;20407;-57
2021/07/30 03:00:33;;;;;;;10.00;6.30;;;14.40;99.90;;;;;;5109480;28;20368;-56
2021/07/30 03:02:58;;;;;;;11.20;6.70;;;14.40;99.90;;;;;;5108850;28;20369;-59
2021/07/30 03:05:24;;;;;;;12.05;7.00;;;14.40;99.90;;;;;;5108731;28;20396;-57
2021/07/30 03:07:50;;;;;;;11.07;7.18;;;14.40;99.90;;;;;;5109725;28;20940;-57
2021/07/30 03:10:15;;;;;;;14.37;7.70;;;14.30;99.90;;;;;;5107929;28;20476;-57
2021/07/30 03:12:41;;;;;;;11.50;6.95;;;14.30;99.90;;;;;;5112260;28;20657;-56
2021/07/30 03:15:07;;;;;;;10.38;6.25;;;14.30;99.90;;;;;;5112325;28;20408;-57
2021/07/30 03:17:32;;;;;;;12.88;6.70;;;14.30;99.90;;;;;;5113568;28;20393;-56
2021/07/30 03:19:58;;;;;;;11.07;7.22;;;14.20;99.90;;;;;;5112897;28;20388;-57
2021/07/30 03:22:24;;;;;;;13.40;7.50;;;14.20;99.90;;;;;;5113241;28;20746;-57
2021/07/30 03:24:49;;;;;;;11.98;7.20;;;14.20;99.90;;;;;;5113039;28;20754;-57
2021/07/30 03:27:15;;;;;;;13.23;7.47;;;14.20;99.90;;;;;;5111887;28;20412;-57
2021/07/30 03:29:41;;;;;;;12.03;7.40;;;14.20;99.90;;;;;;5112984;28;20878;-58
2021/07/30 03:32:08;;;;;;;11.13;6.90;;;14.10;99.90;;;;;;5112130;28;20404;-57
2021/07/30 03:34:34;;;;;;;12.43;7.35;;;14.10;99.90;;;;;;5113210;28;20416;-57
2021/07/30 03:37:00;;;;;;;11.45;7.25;;;14.10;99.90;;;;;;5112487;28;20392;-57
2021/07/30 03:39:27;;;;;;;10.70;7.43;;;14.10;99.90;;;;;;5112826;28;20384;-58
2021/07/30 03:41:53;;;;;;;12.57;7.80;;;14.10;99.90;;;;;;5112628;28;20470;-57
2021/07/30 03:44:18;;;;;;;13.10;7.80;;;14.10;99.90;;;;;;5111873;28;20487;-58
2021/07/30 03:46:44;;;;;;;16.77;8.55;;;14.10;99.90;;;;;;5113031;28;20525;-58
2021/07/30 03:49:10;;;;;;;10.40;7.00;;;14.10;99.90;;;;;;5111798;28;20849;-58
2021/07/30 03:51:35;;;;;;;12.37;7.90;;;14.00;99.90;;;;;;5110028;28;20399;-58
2021/07/30 03:54:01;;;;;;;11.80;7.82;;;14.00;99.90;;;;;;5111760;28;20851;-58
2021/07/30 03:56:27;;;;;;;13.17;7.97;;;14.10;99.90;;;;;;5112785;28;20377;-57
2021/07/30 03:58:52;;;;;;;14.03;8.23;;;14.20;99.90;;;;;;5112368;28;20830;-57
2021/07/30 04:01:18;;;;;;;17.00;9.55;;;14.20;99.90;;;;;;5111753;28;20389;-58
2021/07/30 04:03:44;;;;;;;13.50;9.00;;;14.20;99.90;;;;;;5102939;28;20376;-58
2021/07/30 04:06:11;;;;;;;17.27;10.55;;;14.20;99.90;;;;;;5100094;28;20460;-57
2021/07/30 04:08:37;;;;;;;15.10;9.65;;;14.20;99.90;;;;;;5098437;28;20879;-57
2021/07/30 04:11:03;;;;;;;18.05;10.43;;;14.20;99.90;;;;;;5091403;28;20398;-58
2021/07/30 04:13:32;;;;;;;17.90;10.88;;;14.20;99.90;;;;;;5092200;28;20394;-57
2021/07/30 04:16:03;;;;;;;16.00;10.73;;;14.20;99.90;;;;;;5091793;28;20386;-57
2021/07/30 04:18:28;;;;;;;17.48;10.70;;;14.30;99.90;;;;;;5091236;28;20370;-57
2021/07/30 04:20:54;;;;;;;17.67;10.27;;;14.30;99.90;;;;;;5091185;28;20384;-58
2021/07/30 04:23:19;;;;;;;16.38;10.80;;;14.40;99.90;;;;;;5089750;28;20419;-58
2021/07/30 04:25:45;;;;;;;16.97;10.93;;;14.50;99.90;;;;;;5091200;28;20721;-58
2021/07/30 04:28:11;;;;;;;20.77;11.40;;;14.50;99.90;;;;;;5090323;28;20423;-58
2021/07/30 04:30:36;;;;;;;17.90;11.02;;;14.60;99.90;;;;;;5091255;28;20374;-57
2021/07/30 04:33:02;;;;;;;20.33;11.18;;;14.60;99.90;;;;;;5090421;28;20853;-57
2021/07/30 04:35:27;;;;;;;19.30;10.30;;;14.60;99.90;;;;;;5091045;28;20378;-56
2021/07/30 04:37:57;;;;;;;15.77;8.90;;;14.70;99.90;;;;;;5090946;28;20509;-56
2021/07/30 04:40:25;;;;;;;15.10;9.07;;;14.80;99.90;;;;;;5090089;28;20366;-56
2021/07/30 04:42:51;;;;;;;19.65;10.77;;;14.70;99.90;;;;;;5090718;28;20405;-56
2021/07/30 04:45:16;;;;;;;15.32;9.00;;;14.80;99.90;;;;;;5090240;28;20464;-56
2021/07/30 04:47:42;;;;;;;16.17;10.30;;;14.80;99.90;;;;;;5090779;28;20461;-57
2021/07/30 04:50:08;;;;;;;15.17;9.57;;;14.90;99.90;;;;;;5088483;28;20659;-57
2021/07/30 04:52:34;;;;;;;16.50;9.63;;;15.00;99.90;;;;;;5090080;28;20884;-57
2021/07/30 04:54:59;;;;;;;14.90;9.90;;;15.10;99.90;;;;;;5090664;28;20445;-57
2021/07/30 04:57:25;;;;;;;15.17;9.93;;;15.20;99.90;;;;;;5089964;28;20390;-56
2021/07/30 04:59:50;;;;;;;14.93;9.43;;;15.30;99.90;;;;;;5090812;28;20382;-56
2021/07/30 05:02:16;;;;;;;19.20;9.10;;;15.40;99.90;;;;;;5089847;28;20916;-56
2021/07/30 05:04:42;;;;;;;14.60;9.10;;;15.60;99.90;;;;;;5090169;28;20409;-56
2021/07/30 05:07:07;;;;;;;15.73;8.40;;;15.90;99.90;;;;;;5089519;28;20390;-57
2021/07/30 05:09:33;;;;;;;14.83;9.23;;;16.40;99.90;;;;;;5090530;28;20386;-59
2021/07/30 05:11:58;;;;;;;13.70;8.30;;;17.30;99.90;;;;;;5090920;28;20845;-57
2021/07/30 05:14:25;;;;;;;14.45;8.07;;;18.80;99.90;;;;;;5089413;28;21026;-57
2021/07/30 05:16:51;;;;;;;11.95;7.72;;;19.10;99.90;;;;;;5089837;28;20458;-57
2021/07/30 05:19:16;;;;;;;13.63;7.70;;;21.40;99.90;;;;;;5089478;28;20779;-57
2021/07/30 05:21:42;;;;;;;11.93;7.57;;;22.20;99.90;;;;;;5094832;28;20416;-57
2021/07/30 05:24:08;;;;;;;16.83;8.50;;;23.10;99.90;;;;;;5108340;28;20483;-58
2021/07/30 05:26:34;;;;;;;11.75;7.00;;;23.50;99.90;;;;;;5107530;28;20754;-57
2021/07/30 05:28:59;;;;;;;13.13;7.35;;;24.20;99.90;;;;;;5107936;28;20918;-57
2021/07/30 05:31:25;;;;;;;12.90;7.55;;;23.90;99.90;;;;;;5100889;28;20435;-57
2021/07/30 05:33:51;;;;;;;11.05;7.40;;;23.80;99.90;;;;;;5101024;28;20914;-57
2021/07/30 05:36:20;;;;;;;13.27;7.22;;;23.70;99.90;;;;;;5100799;28;20388;-57
2021/07/30 05:38:47;;;;;;;12.07;6.63;;;23.80;99.90;;;;;;5107501;28;20441;-57
2021/07/30 05:41:13;;;;;;;12.80;6.50;;;24.10;99.90;;;;;;5109087;28;20475;-58
2021/07/30 05:43:40;;;;;;;12.55;7.30;;;24.50;99.90;;;;;;5110474;28;20445;-57
2021/07/30 05:46:07;;;;;;;10.73;6.60;;;25.50;99.90;;;;;;5110088;28;20388;-58
2021/07/30 05:48:32;;;;;;;13.55;7.13;;;25.90;99.90;;;;;;5110355;28;20406;-58
2021/07/30 05:50:58;;;;;;;12.65;7.90;;;26.80;99.90;;;;;;5095888;28;20394;-58
2021/07/30 05:53:23;;;;;;;16.55;14.30;;;26.90;99.90;;;;;;5100331;28;20399;-58
2021/07/30 05:55:49;;;;;;;13.03;8.43;;;27.40;99.90;;;;;;5097402;28;20451;-58
2021/07/30 05:58:15;;;;;;;12.23;9.00;;;28.00;99.90;;;;;;5088744;28;20892;-58
2021/07/30 06:00:41;;;;;;;10.63;7.40;;;28.50;98.70;;;;;;5106242;28;20372;-58
2021/07/30 06:03:07;;;;;;;12.60;7.63;;;28.70;96.80;;;;;;5109727;28;20376;-59
2021/07/30 06:05:32;;;;;;;11.45;7.70;;;28.70;96.30;;;;;;5108855;28;20407;-58
2021/07/30 06:07:59;;;;;;;11.98;8.02;;;28.80;96.30;;;;;;5103599;28;20749;-58
2021/07/30 06:10:25;;;;;;;11.85;8.70;;;29.00;95.10;;;;;;5088767;28;20382;-58
2021/07/30 06:12:52;;;;;;;12.85;9.15;;;29.40;94.00;;;;;;5104017;28;20424;-58
2021/07/30 06:15:23;;;;;;;12.13;10.82;;;29.60;92.90;;;;;;5098420;28;20420;-58
2021/07/30 06:17:49;;;;;;;15.48;13.90;;;29.60;92.40;;;;;;5096972;28;20408;-58
2021/07/30 06:20:14;;;;;;;12.95;11.68;;;29.60;92.00;;;;;;5095276;28;20447;-58
2021/07/30 06:22:40;;;;;;;13.37;6.30;;;29.60;91.80;;;;;;5105192;28;20372;-58
2021/07/30 06:25:06;;;;;;;11.70;5.83;;;29.80;91.10;;;;;;5103112;28;20884;-58
2021/07/30 06:27:34;;;;;;;11.93;6.50;;;30.10;90.30;;;;;;5099715;28;20391;-58
2021/07/30 06:30:00;;;;;;;9.60;6.13;;;30.10;89.60;;;;;;5099914;28;20382;-58
2021/07/30 06:32:26;;;;;;;11.85;6.75;;;30.20;88.90;;;;;;5106700;28;20464;-58
2021/07/30 06:34:52;;;;;;;10.90;6.67;;;30.30;88.50;;;;;;5100404;28;20393;-58
2021/07/30 06:37:18;;;;;;;10.93;6.40;;;30.60;87.40;;;;;;5097973;28;20372;-58
2021/07/30 06:39:44;;;;;;;13.30;6.80;;;30.90;86.60;;;;;;5102714;28;20458;-58
2021/07/30 06:42:09;;;;;;;10.90;6.57;;;31.10;84.00;;;;;;5102621;28;20761;-59
2021/07/30 06:44:35;;;;;;;11.30;6.50;;;31.30;82.30;;;;;;5100282;28;20407;-58
2021/07/30 06:47:03;;;;;;;10.50;6.80;;;31.70;81.40;;;;;;5106743;28;20386;-59
2021/07/30 06:49:29;;;;;;;13.10;8.77;;;31.90;80.80;;;;;;5105553;28;20413;-58
2021/07/30 06:51:54;;;;;;;10.57;7.93;;;32.10;77.80;;;;;;5104998;28;20419;-58
2021/07/30 06:54:20;;;;;;;11.50;7.13;;;32.30;76.10;;;;;;5103072;28;20377;-58
2021/07/30 06:56:46;;;;;;;11.50;6.43;;;32.30;75.70;;;;;;5105609;28;20424;-58
2021/07/30 06:59:12;;;;;;;11.45;7.20;;;32.40;75.70;;;;;;5104038;28;20731;-59
2021/07/30 07:01:38;;;;;;;11.30;6.88;;;32.60;74.60;;;;;;5101179;28;20380;-58
2021/07/30 07:04:04;;;;;;;10.13;6.30;;;32.70;71.80;;;;;;5103799;28;20399;-59
2021/07/30 07:06:30;;;;;;;13.90;6.70;;;32.80;71.70;;;;;;5101923;28;20980;-59
2021/07/30 07:08:59;;;;;;;14.37;6.47;;;32.80;71.00;;;;;;5101170;28;20459;-58
2021/07/30 07:11:24;;;;;;;11.60;6.60;;;31.20;75.00;;;;;;5102535;28;20387;-59
2021/07/30 07:13:50;;;;;;;10.60;6.10;;;30.80;76.80;;;;;;5108248;28;20850;-58
2021/07/30 07:16:21;;;;;;;14.15;6.00;;;31.30;74.70;;;;;;5105363;28;20889;-59
2021/07/30 07:18:47;;;;;;;10.77;6.50;;;32.50;73.00;;;;;;5100892;28;20374;-59
2021/07/30 07:21:13;;;;;;;10.63;7.65;;;33.00;70.60;;;;;;5101525;28;20372;-60
2021/07/30 07:23:40;;;;;;;12.38;10.88;;;32.70;70.80;;;;;;5109750;28;20470;-59
2021/07/30 07:26:06;;;;;;;11.47;6.40;;;32.00;70.30;;;;;;5106539;28;20887;-59
2021/07/30 07:28:31;;;;;;;10.43;5.60;;;32.10;70.00;;;;;;5100811;28;20394;-59
2021/07/30 07:30:57;;;;;;;10.00;5.30;;;31.80;70.30;;;;;;5100229;28;20455;-59
2021/07/30 07:33:23;;;;;;;11.40;5.40;;;31.70;71.20;;;;;;5101789;28;20514;-59
2021/07/30 07:35:48;;;;;;;10.05;5.65;;;32.00;69.40;;;;;;5101364;28;20378;-59
2021/07/30 07:38:14;;;;;;;10.75;5.35;;;32.50;66.90;;;;;;5100931;28;20376;-59
2021/07/30 07:40:40;;;;;;;10.32;5.32;;;32.00;69.00;;;;;;5101916;28;20397;-59
2021/07/30 07:43:05;;;;;;;9.40;4.87;;;32.00;68.20;;;;;;5100201;28;20732;-60
2021/07/30 07:45:31;;;;;;;10.23;5.17;;;32.30;66.90;;;;;;5099233;28;20396;-59
2021/07/30 07:47:57;;;;;;;9.98;6.13;;;33.70;65.50;;;;;;5096988;28;20382;-59
2021/07/30 07:50:23;;;;;;;8.75;4.30;;;34.50;63.60;;;;;;5090949;28;20382;-59
2021/07/30 07:52:49;;;;;;;10.00;4.60;;;33.40;62.90;;;;;;5091498;28;20379;-58
2021/07/30 07:55:14;;;;;;;7.63;4.50;;;32.00;64.60;;;;;;5103644;28;20400;-59
2021/07/30 07:57:41;;;;;;;9.77;4.30;;;32.00;66.30;;;;;;5104062;28;20433;-59
2021/07/30 08:00:08;;;;;;;8.85;4.30;;;32.50;65.20;;;;;;5107824;28;20396;-59
2021/07/30 08:02:34;;;;;;;9.15;4.88;;;32.40;66.10;;;;;;5103749;28;20478;-60
2021/07/30 08:05:00;;;;;;;10.70;4.60;;;33.20;63.20;;;;;;5098723;28;20443;-59
2021/07/30 08:07:25;;;;;;;7.85;4.38;;;32.80;62.30;;;;;;5109537;28;20452;-59
2021/07/30 08:09:51;;;;;;;8.75;4.50;;;32.50;63.40;;;;;;5110120;28;20916;-59
2021/07/30 08:12:18;;;;;;;8.35;4.45;;;32.70;63.10;;;;;;5105801;28;20851;-60
2021/07/30 08:14:43;;;;;;;9.52;4.65;;;33.50;62.40;;;;;;5110669;28;20408;-59
2021/07/30 08:17:09;;;;;;;8.10;4.32;;;34.40;60.40;;;;;;5111417;28;20510;-58
2021/07/30 08:19:36;;;;;;;7.70;4.20;;;35.20;59.90;;;;;;5110500;28;20998;-59
2021/07/30 08:22:02;;;;;;;8.80;4.53;;;35.90;56.40;;;;;;5111713;28;20933;-59
2021/07/30 08:24:28;;;;;;;8.15;4.57;;;34.70;57.10;;;;;;5102572;28;20476;-59
2021/07/30 08:26:55;;;;;;;10.70;8.20;;;33.40;57.60;;;;;;5098456;28;20491;-59
2021/07/30 08:29:20;;;;;;;11.43;8.50;;;33.60;58.00;;;;;;5101968;28;20386;-59
2021/07/30 08:31:46;;;;;;;9.70;8.70;;;33.70;57.50;;;;;;5100001;28;20765;-59
2021/07/30 08:34:13;;;;;;;8.90;7.55;;;34.20;56.90;;;;;;5101324;28;20851;-59
2021/07/30 08:36:38;;;;;;;9.43;6.90;;;34.50;55.80;;;;;;5098634;28;20823;-59
2021/07/30 08:39:04;;;;;;;8.57;7.10;;;34.30;53.20;;;;;;5100051;28;20387;-59
2021/07/30 08:41:30;;;;;;;8.23;4.35;;;34.00;54.40;;;;;;5100476;28;20934;-59
2021/07/30 08:43:56;;;;;;;11.90;7.20;;;34.40;54.30;;;;;;5098823;28;20397;-59
2021/07/30 08:46:24;;;;;;;8.30;6.05;;;34.30;53.00;;;;;;5101271;28;20412;-59
2021/07/30 08:48:50;;;;;;;8.00;4.70;;;34.50;53.30;;;;;;5099602;28;20391;-58
2021/07/30 08:51:19;;;;;;;8.82;5.00;;;34.10;53.50;;;;;;5106678;28;20459;-59
2021/07/30 08:53:46;;;;;;;9.30;8.35;;;33.80;52.50;;;;;;5105665;28;20384;-59
2021/07/30 08:56:14;;;;;;;9.20;8.30;;;33.30;53.50;;;;;;5099119;28;20801;-57
2021/07/30 08:58:39;;;;;;;8.60;7.80;;;33.10;54.30;;;;;;5092272;28;20413;-59
2021/07/30 09:01:05;;;;;;;9.10;8.00;;;34.20;54.00;;;;;;5098850;28;20372;-59
2021/07/30 09:03:45;;;;;;;7.55;4.10;;;34.50;53.20;;;;;;5107899;28;20494;-59
2021/07/30 09:06:24;;;;;;;7.77;4.37;;;35.10;53.00;;;;;;5099330;28;20394;-59
2021/07/30 09:08:55;;;;;;;9.77;4.60;;;35.00;53.10;;;;;;5099989;28;20381;-59
2021/07/30 09:11:32;;;;;;;11.45;4.68;;;35.20;52.50;;;;;;5097554;28;20886;-60
2021/07/30 09:14:00;;;;;;;11.10;8.27;;;34.60;54.10;;;;;;5091420;28;20414;-58
2021/07/30 09:16:26;;;;;;;11.00;8.85;;;33.70;55.00;;;;;;5092931;28;20390;-59
2021/07/30 09:18:53;;;;;;;9.85;8.85;;;33.30;55.20;;;;;;5098595;28;20394;-59
2021/07/30 09:21:30;;;;;;;8.60;6.82;;;33.00;55.30;;;;;;5092709;28;20398;-59
2021/07/30 09:24:10;;;;;;;8.63;7.35;;;33.20;55.30;;;;;;5098555;28;20491;-59
2021/07/30 09:26:47;;;;;;;8.77;6.40;;;33.40;54.70;;;;;;5099636;28;20865;-59
2021/07/30 09:29:29;;;;;;;12.02;6.30;;;33.70;54.60;;;;;;5099933;28;20390;-60
2021/07/30 09:32:06;;;;;;;9.20;6.68;;;34.20;53.80;;;;;;5100468;28;20378;-59
2021/07/30 09:34:32;;;;;;;8.97;5.80;;;33.90;54.10;;;;;;5098811;28;20479;-59
2021/07/30 09:36:59;;;;;;;8.90;5.60;;;33.70;54.30;;;;;;5100598;28;20376;-59
2021/07/30 09:39:33;;;;;;;9.00;5.82;;;34.30;54.90;;;;;;5098125;28;20394;-60
2021/07/30 09:42:01;;;;;;;7.88;5.50;;;35.20;53.80;;;;;;5098152;28;20389;-60
2021/07/30 09:44:28;;;;;;;7.60;4.68;;;35.60;53.10;;;;;;5099224;28;20447;-60
2021/07/30 09:47:08;;;;;;;8.87;6.50;;;35.80;52.30;;;;;;5098492;28;20796;-59
2021/07/30 09:49:55;;;;;;;10.23;6.20;;;34.30;54.70;;;;;;5098739;28;20450;-59
2021/07/30 09:52:26;;;;;;;8.17;6.00;;;34.60;55.70;;;;;;5100605;28;20459;-59
2021/07/30 09:54:54;;;;;;;10.00;6.30;;;35.00;53.60;;;;;;5099852;28;20375;-60
2021/07/30 09:57:22;;;;;;;7.50;6.03;;;34.40;53.50;;;;;;5096868;28;20394;-60
2021/07/30 09:59:48;;;;;;;8.40;5.97;;;35.30;54.80;;;;;;5096419;28;20451;-58
2021/07/30 10:02:16;;;;;;;9.80;6.85;;;33.90;55.60;;;;;;5098683;28;20406;-59
2021/07/30 10:04:47;;;;;;;7.63;5.90;;;34.00;55.30;;;;;;5097151;28;21241;-60
2021/07/30 10:07:15;;;;;;;10.30;9.30;;;34.40;55.10;;;;;;5098818;28;20415;-60
2021/07/30 10:09:48;;;;;;;12.20;11.00;;;33.10;56.90;;;;;;5098064;28;20778;-60
2021/07/30 10:12:14;;;;;;;11.63;10.00;;;34.00;55.90;;;;;;5099636;28;20432;-61
2021/07/30 10:14:40;;;;;;;12.60;10.50;;;35.10;54.50;;;;;;5097240;28;20410;-60
2021/07/30 10:17:07;;;;;;;9.20;7.70;;;35.40;55.10;;;;;;5099402;28;20380;-61
2021/07/30 10:19:36;;;;;;;10.10;9.15;;;35.60;53.70;;;;;;5098615;28;20378;-61
2021/07/30 10:22:06;;;;;;;10.10;9.10;;;35.20;53.90;;;;;;5101384;28;20806;-59
2021/07/30 10:24:38;;;;;;;9.18;8.27;;;34.50;54.30;;;;;;5101811;28;20414;-60
2021/07/30 10:27:05;;;;;;;10.05;8.95;;;34.60;55.10;;;;;;5102004;28;20775;-59
2021/07/30 10:29:59;;;;;;;8.73;7.80;;;35.40;54.30;;;;;;5100687;28;20392;-59
2021/07/30 10:32:50;;;;;;;9.13;6.55;;;36.30;51.70;;;;;;5101993;28;20390;-60
2021/07/30 10:35:26;;;;;;;8.82;7.70;;;35.80;52.60;;;;;;5098490;28;20519;-60
2021/07/30 10:38:12;;;;;;;9.55;8.55;;;35.20;52.70;;;;;;5102652;28;20385;-59
2021/07/30 10:40:39;;;;;;;9.90;8.90;;;34.10;54.10;;;;;;5102082;28;20385;-59
2021/07/30 10:43:09;;;;;;;10.52;9.48;;;32.80;56.10;;;;;;5102273;28;20408;-60
2021/07/30 10:45:39;;;;;;;10.30;8.80;;;32.20;57.20;;;;;;5101048;27;20403;-60
2021/07/30 10:48:14;;;;;;;8.40;4.68;;;32.10;58.20;;;;;;5102584;28;20425;-61
2021/07/30 10:50:56;;;;;;;8.20;5.30;;;32.30;58.80;;;;;;5112698;28;20380;-61
2021/07/30 10:53:33;;;;;;;9.00;4.72;;;32.20;57.60;;;;;;5103513;28;20524;-60
2021/07/30 10:56:04;;;;;;;9.90;4.60;;;31.30;59.60;;;;;;5106932;28;20868;-57
2021/07/30 10:58:45;;;;;;;9.43;7.60;;;30.70;60.60;;;;;;5092624;28;20382;-58
2021/07/30 11:01:15;;;;;;;8.70;5.80;;;30.40;61.90;;;;;;5093030;28;20389;-58
2021/07/30 11:06:18;;;;;;;8.10;5.00;;;31.30;61.10;;;;;;5112949;28;20388;-59
2021/07/30 11:09:02;;;;;;;16.58;6.07;;;31.50;59.80;;;;;;5111386;28;20483;-59
2021/07/30 11:11:38;;;;;;;11.35;5.63;;;31.00;60.60;;;;;;5111444;28;20381;-59
2021/07/30 11:14:11;;;;;;;10.65;7.00;;;30.30;61.90;;;;;;5111709;28;20436;-59
2021/07/30 11:16:37;;;;;;;8.75;5.65;;;30.60;61.40;;;;;;5094975;28;20477;-60
2021/07/30 11:19:04;;;;;;;9.98;5.10;;;30.90;61.00;;;;;;5099124;28;20457;-59
2021/07/30 11:21:31;;;;;;;9.82;5.50;;;31.00;59.80;;;;;;5097848;28;20892;-59
2021/07/30 11:23:57;;;;;;;9.37;6.90;;;30.90;62.00;;;;;;5097998;28;20459;-60
2021/07/30 11:26:23;;;;;;;8.30;4.47;;;31.10;62.30;;;;;;5101014;27;20389;-60
2021/07/30 11:29:06;;;;;;;8.40;4.28;;;31.20;61.10;;;;;;5106120;28;20372;-59
2021/07/30 11:31:31;;;;;;;10.23;4.70;;;31.50;60.40;;;;;;5096773;28;20370;-60
2021/07/30 11:33:57;;;;;;;9.15;4.30;;;31.80;59.20;;;;;;5101261;28;20376;-59
2021/07/30 11:36:23;;;;;;;9.13;4.72;;;31.60;61.30;;;;;;5098647;28;20386;-59
2021/07/30 11:38:57;;;;;;;10.20;5.10;;;31.60;59.70;;;;;;5100485;28;20400;-59
2021/07/30 11:41:23;;;;;;;10.23;4.90;;;31.30;60.80;;;;;;5099927;28;20382;-60
2021/07/30 11:44:08;;;;;;;9.88;4.70;;;31.30;61.60;;;;;;5096391;28;20382;-60
2021/07/30 11:46:35;;;;;;;8.32;4.40;;;31.10;60.00;;;;;;5100556;28;20396;-60
2021/07/30 11:49:03;;;;;;;9.90;4.47;;;31.10;61.30;;;;;;5098160;28;20379;-59
2021/07/30 11:51:29;;;;;;;9.25;4.60;;;30.90;62.30;;;;;;5100660;28;20388;-59
2021/07/30 11:53:56;;;;;;;7.87;4.20;;;30.80;63.00;;;;;;5098626;28;20699;-59
2021/07/30 11:56:23;;;;;;;10.60;4.70;;;31.10;61.60;;;;;;5097020;28;20386;-59
2021/07/30 11:58:58;;;;;;;7.80;4.22;;;31.10;61.10;;;;;;5096496;28;20382;-59
2021/07/30 12:01:29;;;;;;;8.55;4.70;;;31.00;61.50;;;;;;5100673;28;20738;-59
2021/07/30 12:04:14;;;;;;;9.05;4.80;;;30.80;61.80;;;;;;5099562;28;20867;-59
2021/07/30 12:06:41;;;;;;;9.30;4.80;;;30.70;63.80;;;;;;5099308;28;20924;-59
2021/07/30 12:09:10;;;;;;;10.07;4.30;;;30.80;63.40;;;;;;5094010;28;20477;-59
2021/07/30 12:11:37;;;;;;;9.43;4.90;;;31.20;61.80;;;;;;5091531;28;20424;-59
2021/07/30 12:14:05;;;;;;;9.30;4.40;;;31.20;60.50;;;;;;5090069;28;21284;-59
2021/07/30 12:16:31;;;;;;;8.25;4.22;;;31.00;62.50;;;;;;5099330;28;20842;-59
2021/07/30 12:18:57;;;;;;;8.10;4.50;;;30.90;63.50;;;;;;5094134;28;20483;-60
2021/07/30 12:21:22;;;;;;;9.13;4.90;;;30.90;63.80;;;;;;5096988;28;20793;-57
2021/07/30 12:23:48;;;;;;;8.65;4.60;;;30.80;63.60;;;;;;5097138;27;20428;-57
2021/07/30 12:26:34;;;;;;;8.50;4.40;;;31.10;63.30;;;;;;5091187;28;20406;-57
2021/07/30 12:29:00;;;;;;;9.68;4.38;;;31.10;64.30;;;;;;5091821;28;20382;-58
2021/07/30 12:31:27;;;;;;;11.00;4.70;;;31.30;63.20;;;;;;5091294;28;20821;-58
2021/07/30 12:34:14;;;;;;;8.65;4.45;;;31.30;62.40;;;;;;5101002;28;20724;-58
2021/07/30 12:36:40;;;;;;;9.30;4.20;;;31.00;63.60;;;;;;5107900;28;20440;-59
2021/07/30 12:39:07;;;;;;;9.32;4.30;;;31.40;63.90;;;;;;5100065;28;20413;-58
2021/07/30 12:41:34;;;;;;;9.02;4.80;;;31.00;64.80;;;;;;5098456;28;20453;-59